Edinboro, Pennsylvania
Current Conditions -  °F | °C
As of 5:51 AM on Wednesday 22 Oct 2014 (Local Time) from KERI Reporting Station
Overcast Overcast  
Wind Chill: 42°   Ceiling: 1100
Heat Index: 48°   Visibility: 10mi
Dew Point: 42°   Wind: 16mph
Humidity: 80%   Direction: 30°NNE
Pressure: 30.16"   Gusts: 23mph
Location:  41.88°N, 80.13°W
Report Text: KERI 220951Z AUTO 03014G20KT 10SM OVC011 09/06 A3016 RMK AO2 RAE0852 SLP215 T00890056
Loading
Personal Weather Stations






























Interactive Weather Map New forecast layout! Learn more

10-Day Weather Forecast

Advertisements
Track Severe Weather on mobile